createdAt,value
2023-11-18T00:01:53.881Z,94.02
2023-11-18T00:04:23.365Z,94.26
2023-11-18T00:06:53.724Z,94.20
2023-11-18T00:09:26.045Z,94.60
2023-11-18T00:11:56.992Z,94.46
2023-11-18T00:14:26.150Z,94.91
2023-11-18T00:16:55.779Z,94.56
2023-11-18T00:19:25.120Z,95.64
2023-11-18T00:21:54.804Z,95.24
2023-11-18T00:24:23.993Z,95.50
2023-11-18T00:26:56.463Z,95.27
2023-11-18T00:29:26.661Z,94.58
2023-11-18T00:31:56.900Z,94.86
2023-11-18T00:34:26.181Z,95.08
2023-11-18T00:36:55.578Z,95.35
2023-11-18T00:39:24.849Z,95.46
2023-11-18T00:41:59.201Z,94.24
2023-11-18T00:44:28.422Z,93.92
2023-11-18T00:46:58.953Z,93.52
2023-11-18T00:49:28.226Z,93.70
2023-11-18T00:51:57.774Z,94.05
2023-11-18T00:54:28.081Z,94.39
2023-11-18T00:56:59.197Z,94.46
2023-11-18T00:59:28.941Z,94.62
2023-11-18T01:01:58.680Z,94.55
2023-11-18T01:04:28.047Z,94.56
2023-11-18T01:06:59.253Z,94.64
2023-11-18T01:09:29.310Z,94.53
2023-11-18T01:12:07.998Z,94.58
2023-11-18T01:14:40.323Z,94.57
2023-11-18T01:17:11.472Z,94.71
2023-11-18T01:19:40.944Z,94.80
2023-11-18T01:22:12.385Z,94.86
2023-11-18T01:24:42.092Z,94.91
2023-11-18T01:27:13.130Z,94.78
2023-11-18T01:29:42.496Z,94.92
2023-11-18T01:32:13.125Z,94.72
2023-11-18T01:34:44.748Z,94.91
2023-11-18T01:37:14.402Z,94.88
2023-11-18T01:39:43.939Z,94.88
2023-11-18T01:42:15.084Z,94.93
2023-11-18T01:44:44.351Z,94.92
2023-11-18T01:47:14.029Z,94.85
2023-11-18T01:49:44.730Z,95.05
2023-11-18T01:52:14.380Z,95.11
2023-11-18T01:54:46.020Z,95.00
2023-11-18T01:57:17.289Z,94.90
2023-11-18T01:59:46.552Z,95.08
2023-11-18T02:02:16.481Z,95.03
2023-11-18T02:04:46.324Z,95.24
2023-11-18T02:07:16.560Z,95.53
2023-11-18T02:09:46.991Z,95.18
2023-11-18T02:12:29.402Z,95.33
2023-11-18T02:15:02.613Z,95.30
2023-11-18T02:17:34.012Z,95.33
2023-11-18T02:20:07.376Z,95.05
2023-11-18T02:22:37.272Z,95.13
2023-11-18T02:25:11.322Z,95.12
2023-11-18T02:27:42.338Z,95.04
2023-11-18T02:30:14.279Z,95.25
2023-11-18T02:32:55.010Z,95.03
2023-11-18T02:35:28.083Z,94.94
2023-11-18T02:37:59.745Z,94.87
2023-11-18T02:40:34.458Z,94.95
2023-11-18T02:43:07.278Z,94.83
2023-11-18T02:45:38.364Z,94.99
2023-11-18T02:48:08.854Z,94.92
2023-11-18T02:50:39.165Z,94.98
2023-11-18T02:53:10.770Z,94.92
2023-11-18T02:55:42.376Z,94.96
2023-11-18T02:58:13.238Z,94.46
2023-11-18T03:00:42.420Z,94.81
2023-11-18T03:03:12.181Z,94.62
2023-11-18T03:05:41.673Z,94.51
2023-11-18T03:08:12.755Z,94.44
2023-11-18T03:10:45.574Z,94.45
2023-11-18T03:13:16.504Z,94.08
2023-11-18T03:15:46.143Z,94.02
2023-11-18T03:18:16.511Z,94.00
2023-11-18T03:20:46.533Z,94.14
2023-11-18T03:23:15.932Z,94.05
2023-11-18T03:25:45.438Z,93.82
2023-11-18T03:28:16.137Z,94.02
2023-11-18T03:31:19.337Z,94.22
2023-11-18T03:33:48.903Z,94.18
2023-11-18T03:36:19.175Z,94.02
2023-11-18T03:38:49.431Z,93.79
2023-11-18T03:41:18.801Z,93.91
2023-11-18T03:43:50.153Z,93.88
2023-11-18T03:46:19.472Z,94.04
2023-11-18T03:48:48.945Z,93.92
2023-11-18T03:51:18.884Z,93.86
2023-11-18T03:53:48.745Z,93.89
2023-11-18T03:56:20.627Z,93.63
2023-11-18T03:58:52.310Z,93.69
2023-11-18T04:01:23.578Z,93.74
2023-11-18T04:03:53.548Z,93.58
2023-11-18T04:06:25.581Z,93.47
2023-11-18T04:08:55.077Z,93.70
2023-11-18T04:11:24.869Z,93.80
2023-11-18T04:13:55.680Z,93.75
2023-11-18T04:16:24.803Z,93.80
2023-11-18T04:18:54.418Z,93.76
2023-11-18T04:21:23.631Z,93.97
2023-11-18T04:23:53.193Z,93.79
2023-11-18T04:26:22.364Z,93.83
2023-11-18T04:28:51.932Z,93.92
2023-11-18T04:31:22.705Z,93.35
2023-11-18T04:33:52.230Z,93.26
2023-11-18T04:36:23.278Z,93.09
2023-11-18T04:38:52.999Z,92.88
2023-11-18T04:41:22.214Z,92.72
2023-11-18T04:43:52.058Z,92.53
2023-11-18T04:46:23.167Z,92.19
2023-11-18T04:48:54.616Z,91.86
2023-11-18T04:51:24.837Z,92.07
2023-11-18T04:53:54.590Z,91.85
2023-11-18T04:56:24.269Z,91.76
2023-11-18T04:58:53.885Z,91.60
2023-11-18T05:01:24.484Z,91.65
2023-11-18T05:03:54.347Z,91.79
2023-11-18T05:06:23.936Z,91.60
2023-11-18T05:08:53.387Z,91.77
2023-11-18T05:11:22.741Z,91.77
2023-11-18T05:13:52.149Z,91.51
2023-11-18T05:16:21.271Z,91.67
2023-11-18T05:18:52.377Z,91.31
2023-11-18T05:21:21.670Z,91.52
2023-11-18T05:23:52.122Z,91.60
2023-11-18T05:26:21.243Z,91.76
2023-11-18T05:28:51.422Z,91.72
2023-11-18T05:31:20.599Z,91.71
2023-11-18T05:33:56.579Z,91.63
2023-11-18T05:36:29.344Z,91.48
2023-11-18T05:38:59.327Z,91.78
2023-11-18T05:41:31.823Z,91.49
2023-11-18T05:44:01.855Z,92.32
2023-11-18T05:46:31.612Z,92.39
2023-11-18T05:49:08.871Z,92.39
2023-11-18T05:51:39.016Z,92.65
2023-11-18T05:54:08.948Z,92.96
2023-11-18T05:56:38.508Z,92.78
2023-11-18T05:59:07.962Z,93.08
2023-11-18T06:01:38.676Z,94.26
2023-11-18T06:04:11.279Z,95.08
2023-11-18T06:06:40.713Z,93.51
2023-11-18T06:09:19.099Z,93.92
2023-11-18T06:11:48.321Z,94.31
2023-11-18T06:14:19.462Z,94.45
2023-11-18T06:16:51.651Z,94.34
2023-11-18T06:19:22.606Z,94.62
2023-11-18T06:21:51.796Z,94.63
2023-11-18T06:24:22.799Z,94.64
2023-11-18T06:26:53.125Z,94.82
2023-11-18T06:29:23.053Z,94.69
2023-11-18T06:31:52.493Z,94.67
2023-11-18T06:34:23.677Z,94.80
2023-11-18T06:36:52.810Z,94.61
2023-11-18T06:39:27.028Z,94.69
2023-11-18T06:41:57.247Z,94.88
2023-11-18T06:44:27.179Z,94.82
2023-11-18T06:46:56.618Z,94.77
2023-11-18T06:49:27.653Z,94.90
2023-11-18T06:51:56.811Z,95.54
2023-11-18T06:54:28.430Z,95.43
2023-11-18T06:56:57.636Z,95.35
2023-11-18T06:59:27.071Z,95.37
2023-11-18T07:01:56.597Z,95.22
2023-11-18T07:04:27.759Z,95.10
2023-11-18T07:06:57.596Z,95.13
2023-11-18T07:09:27.300Z,95.40
2023-11-18T07:11:57.439Z,95.20
2023-11-18T07:14:28.340Z,95.27
2023-11-18T07:16:57.453Z,95.30
2023-11-18T07:19:30.105Z,95.19
2023-11-18T07:22:09.832Z,95.19
2023-11-18T07:24:40.253Z,95.08
2023-11-18T07:27:12.678Z,95.23
2023-11-18T07:29:43.149Z,95.38
2023-11-18T07:32:12.447Z,95.44
2023-11-18T07:34:43.285Z,95.40
2023-11-18T07:37:14.251Z,95.47
2023-11-18T07:39:46.225Z,95.33
2023-11-18T07:42:16.127Z,95.49
2023-11-18T07:44:45.825Z,95.37
2023-11-18T07:47:17.481Z,95.49
2023-11-18T07:49:49.353Z,95.62
2023-11-18T07:52:18.722Z,95.54
2023-11-18T07:54:52.313Z,95.48
2023-11-18T07:57:24.987Z,95.65
2023-11-18T07:59:56.622Z,95.60
2023-11-18T08:02:26.456Z,95.45
2023-11-18T08:04:57.934Z,95.72
2023-11-18T08:07:27.543Z,95.89
2023-11-18T08:09:56.964Z,95.80
2023-11-18T08:12:26.384Z,96.13
2023-11-18T08:14:55.814Z,96.19
2023-11-18T08:17:26.648Z,96.09
2023-11-18T08:19:59.097Z,96.05
2023-11-18T08:22:29.235Z,95.98
2023-11-18T08:25:00.241Z,95.80
2023-11-18T08:27:29.697Z,95.76
2023-11-18T08:29:59.642Z,95.95
2023-11-18T08:32:28.892Z,95.89
2023-11-18T08:35:00.010Z,95.85
2023-11-18T08:37:29.421Z,96.08
2023-11-18T08:39:58.846Z,96.16
2023-11-18T08:42:29.104Z,96.05
2023-11-18T08:45:02.289Z,96.27
2023-11-18T08:47:33.665Z,96.39
2023-11-18T08:50:13.221Z,96.35
2023-11-18T08:52:44.849Z,96.33
2023-11-18T08:55:20.818Z,96.37
2023-11-18T08:57:59.620Z,96.43
2023-11-18T09:00:49.376Z,96.35
2023-11-18T09:03:26.226Z,96.38
2023-11-18T09:06:00.818Z,96.37
2023-11-18T09:08:33.597Z,96.31
2023-11-18T09:11:06.479Z,96.37
2023-11-18T09:13:37.154Z,96.44
2023-11-18T09:16:10.095Z,96.57
2023-11-18T09:18:43.345Z,96.43
2023-11-18T09:21:17.149Z,96.49
2023-11-18T09:23:49.289Z,96.44
2023-11-18T09:26:19.297Z,96.45
2023-11-18T09:28:51.101Z,96.13
2023-11-18T09:31:24.015Z,96.07
2023-11-18T09:33:54.634Z,96.34
2023-11-18T09:36:25.598Z,96.21
2023-11-18T09:38:55.036Z,96.13
2023-11-18T09:41:29.070Z,96.14
2023-11-18T09:44:03.854Z,96.31
2023-11-18T09:46:36.122Z,96.12
2023-11-18T09:49:17.298Z,96.13
2023-11-18T09:51:49.244Z,96.22
2023-11-18T09:54:30.581Z,96.00
2023-11-18T09:57:10.757Z,96.10
2023-11-18T09:59:54.619Z,96.23
2023-11-18T10:02:27.043Z,96.08
2023-11-18T10:04:59.783Z,96.34
2023-11-18T10:07:34.307Z,96.53
2023-11-18T10:10:06.179Z,96.30
2023-11-18T10:12:39.165Z,96.09
2023-11-18T10:15:13.754Z,96.34
2023-11-18T10:17:56.408Z,95.91
2023-11-18T10:20:46.040Z,95.29
2023-11-18T10:23:21.148Z,95.28
2023-11-18T10:25:51.786Z,95.36
2023-11-18T10:28:29.075Z,94.45
2023-11-18T10:31:00.228Z,94.91
2023-11-18T10:33:32.081Z,95.49
2023-11-18T10:36:04.980Z,95.30
2023-11-18T10:38:44.727Z,95.19
2023-11-18T10:41:14.429Z,95.50
2023-11-18T10:43:45.700Z,94.93
2023-11-18T10:46:15.897Z,95.42
2023-11-18T10:48:48.778Z,95.48
2023-11-18T10:51:21.104Z,95.31
2023-11-18T10:54:00.190Z,95.04
2023-11-18T10:56:30.677Z,95.32
2023-11-18T10:59:01.472Z,95.19
2023-11-18T11:01:33.356Z,95.35
2023-11-18T11:04:05.956Z,95.25
2023-11-18T11:06:36.131Z,95.30
2023-11-18T11:09:15.585Z,95.07
2023-11-18T11:11:50.285Z,95.14
2023-11-18T11:14:22.691Z,95.35
2023-11-18T11:16:56.909Z,94.87
2023-11-18T11:19:30.880Z,95.20
2023-11-18T11:22:08.438Z,94.54
2023-11-18T11:25:00.925Z,93.61
2023-11-18T11:27:41.178Z,92.28
2023-11-18T11:30:19.635Z,93.83
2023-11-18T11:32:55.205Z,92.77
2023-11-18T11:35:31.754Z,92.36
2023-11-18T11:38:11.051Z,92.39
2023-11-18T11:40:43.553Z,93.55
2023-11-18T11:43:17.035Z,94.03
2023-11-18T11:45:48.672Z,94.44
2023-11-18T11:48:27.436Z,93.39
2023-11-18T11:51:16.296Z,92.55
2023-11-18T11:53:50.085Z,91.86
2023-11-18T11:56:25.484Z,91.48
2023-11-18T11:58:55.113Z,91.49
2023-11-18T12:01:31.413Z,91.69
2023-11-18T12:04:08.065Z,92.59
2023-11-18T12:06:45.469Z,92.88
2023-11-18T12:09:20.851Z,93.19
2023-11-18T12:11:52.323Z,93.40
2023-11-18T12:14:39.293Z,93.87
2023-11-18T12:17:10.982Z,93.78
2023-11-18T12:19:49.419Z,94.08
2023-11-18T12:22:26.082Z,94.27
2023-11-18T12:25:38.332Z,94.01
2023-11-18T12:28:16.165Z,94.25
2023-11-18T12:30:57.478Z,94.69
2023-11-18T12:33:30.052Z,94.68
2023-11-18T12:36:31.473Z,94.68
2023-11-18T12:39:45.671Z,94.74
2023-11-18T12:42:37.938Z,94.86
2023-11-18T12:45:37.737Z,95.06
2023-11-18T12:48:13.497Z,94.87
2023-11-18T12:50:47.569Z,95.00
2023-11-18T12:53:19.749Z,94.80
2023-11-18T12:55:54.578Z,94.87
2023-11-18T12:58:27.831Z,94.80
2023-11-18T13:01:01.481Z,94.89
2023-11-18T13:03:31.059Z,94.77
2023-11-18T13:06:02.100Z,94.82
2023-11-18T13:08:31.447Z,94.23
2023-11-18T13:11:06.242Z,94.51
2023-11-18T13:13:37.146Z,94.77
2023-11-18T13:16:10.098Z,94.40
2023-11-18T13:18:48.693Z,94.62
2023-11-18T13:21:18.901Z,94.63
2023-11-18T13:23:53.859Z,94.54
2023-11-18T13:26:23.982Z,94.71
2023-11-18T13:28:53.134Z,94.14
2023-11-18T13:31:23.984Z,94.61
2023-11-18T13:33:54.607Z,94.53
2023-11-18T13:36:25.840Z,94.61
2023-11-18T13:38:55.946Z,94.47
2023-11-18T13:41:33.259Z,94.75
2023-11-18T13:44:04.022Z,94.68
2023-11-18T13:46:35.021Z,94.64
2023-11-18T13:49:07.156Z,94.58
2023-11-18T13:51:37.716Z,94.56
2023-11-18T13:54:08.201Z,94.40
2023-11-18T13:56:37.638Z,94.59
2023-11-18T13:59:08.022Z,94.53
2023-11-18T14:01:39.180Z,94.32
2023-11-18T14:04:10.312Z,94.06
2023-11-18T14:06:41.035Z,94.39
2023-11-18T14:09:12.600Z,94.54
2023-11-18T14:11:42.529Z,94.62
2023-11-18T14:14:11.662Z,94.73
2023-11-18T14:16:42.620Z,94.44
2023-11-18T14:19:12.311Z,94.42
2023-11-18T14:21:42.765Z,94.10
2023-11-18T14:24:12.893Z,94.16
2023-11-18T14:26:43.118Z,93.60
2023-11-18T14:29:13.880Z,92.99
2023-11-18T14:31:45.151Z,93.20
2023-11-18T14:34:14.978Z,92.66
2023-11-18T14:36:46.026Z,92.72
2023-11-18T14:39:15.963Z,92.58
2023-11-18T14:41:45.516Z,92.44
2023-11-18T14:44:14.694Z,92.63
2023-11-18T14:46:47.052Z,92.22
2023-11-18T14:49:16.461Z,92.60
2023-11-18T14:51:45.919Z,92.54
2023-11-18T14:54:15.131Z,92.34
2023-11-18T14:56:44.747Z,92.29
2023-11-18T14:59:13.947Z,92.36
2023-11-18T15:01:45.402Z,92.26
2023-11-18T15:04:16.193Z,92.23
2023-11-18T15:06:46.407Z,92.24
2023-11-18T15:09:15.778Z,92.07
2023-11-18T15:11:46.826Z,93.96
2023-11-18T15:14:16.393Z,93.09
2023-11-18T15:16:47.862Z,92.59
2023-11-18T15:19:19.106Z,92.20
2023-11-18T15:21:48.657Z,92.66
2023-11-18T15:24:18.726Z,92.56
2023-11-18T15:26:51.025Z,92.71
2023-11-18T15:29:21.305Z,93.05
2023-11-18T15:31:51.047Z,92.63
2023-11-18T15:34:22.361Z,93.03
2023-11-18T15:36:52.762Z,92.67
2023-11-18T15:39:21.731Z,92.57
2023-11-18T15:41:51.430Z,92.44
2023-11-18T15:44:21.240Z,92.66
2023-11-18T15:46:51.767Z,93.01
2023-11-18T15:49:23.753Z,93.05
2023-11-18T15:51:53.617Z,93.08
2023-11-18T15:54:22.877Z,92.99
2023-11-18T15:56:52.298Z,92.83
2023-11-18T15:59:21.466Z,92.89
2023-11-18T16:01:50.826Z,92.84
2023-11-18T16:04:20.013Z,92.62
2023-11-18T16:06:51.252Z,92.69
2023-11-18T16:09:21.788Z,92.33
2023-11-18T16:11:52.014Z,92.11
2023-11-18T16:14:22.227Z,91.85
2023-11-18T16:16:52.251Z,92.26
2023-11-18T16:19:23.121Z,92.56
2023-11-18T16:21:54.465Z,92.78
2023-11-18T16:24:23.598Z,92.81
2023-11-18T16:26:53.566Z,92.82
2023-11-18T16:29:22.685Z,92.58
2023-11-18T16:31:52.567Z,92.44
2023-11-18T16:34:23.570Z,92.49
2023-11-18T16:36:57.867Z,92.89
2023-11-18T16:39:27.826Z,92.67
2023-11-18T16:41:57.335Z,92.75
2023-11-18T16:44:26.404Z,92.57
2023-11-18T16:46:56.871Z,92.20
2023-11-18T16:49:27.790Z,92.02
2023-11-18T16:52:00.720Z,91.96
2023-11-18T16:54:39.007Z,91.36
2023-11-18T16:57:10.522Z,91.26
2023-11-18T16:59:40.492Z,91.11
2023-11-18T17:02:10.359Z,90.59
2023-11-18T17:04:41.388Z,90.61
2023-11-18T17:07:15.118Z,90.61
2023-11-18T17:09:44.497Z,90.53
2023-11-18T17:12:13.866Z,90.67
2023-11-18T17:14:43.390Z,90.67
2023-11-18T17:17:12.991Z,90.84
2023-11-18T17:19:42.197Z,91.10
2023-11-18T17:22:13.481Z,91.25
2023-11-18T17:24:43.246Z,91.32
2023-11-18T17:27:13.233Z,91.73
2023-11-18T17:29:42.398Z,92.47
2023-11-18T17:32:12.455Z,92.46
2023-11-18T17:34:43.883Z,92.21
2023-11-18T17:37:15.371Z,92.05
2023-11-18T17:39:44.792Z,91.63
2023-11-18T17:42:14.211Z,92.19
2023-11-18T17:44:43.583Z,92.49
2023-11-18T17:47:13.064Z,92.35
2023-11-18T17:49:42.446Z,92.47
2023-11-18T17:52:13.556Z,92.61
2023-11-18T17:54:43.613Z,92.37
2023-11-18T17:57:16.209Z,92.35
2023-11-18T17:59:46.089Z,92.38
2023-11-18T18:02:16.916Z,92.34
2023-11-18T18:04:47.203Z,92.48
2023-11-18T18:07:18.295Z,92.54
2023-11-18T18:09:47.887Z,92.68
2023-11-18T18:12:17.274Z,92.78
2023-11-18T18:14:46.835Z,92.80
2023-11-18T18:17:16.664Z,92.38
2023-11-18T18:19:48.911Z,92.55
2023-11-18T18:22:19.878Z,92.60
2023-11-18T18:24:49.061Z,92.70
2023-11-18T18:27:20.676Z,92.71
2023-11-18T18:29:50.687Z,92.62
2023-11-18T18:32:22.141Z,92.81
2023-11-18T18:34:52.746Z,92.70
2023-11-18T18:37:27.368Z,92.88
2023-11-18T18:39:57.291Z,92.83
2023-11-18T18:42:27.408Z,92.94
2023-11-18T18:44:57.705Z,92.72
2023-11-18T18:47:29.788Z,92.70
2023-11-18T18:50:02.639Z,92.66
2023-11-18T18:52:35.633Z,92.60
2023-11-18T18:55:07.636Z,92.55
2023-11-18T18:57:37.749Z,92.56
2023-11-18T19:00:13.422Z,92.97
2023-11-18T19:02:44.248Z,93.02
2023-11-18T19:05:14.630Z,93.26
2023-11-18T19:07:47.727Z,92.90
2023-11-18T19:10:17.738Z,92.89
2023-11-18T19:12:49.791Z,93.20
2023-11-18T19:15:20.088Z,93.29
2023-11-18T19:17:52.314Z,93.25
2023-11-18T19:20:22.680Z,92.94
2023-11-18T19:22:55.520Z,92.96
2023-11-18T19:25:24.824Z,93.07
2023-11-18T19:27:54.236Z,92.87
2023-11-18T19:30:28.000Z,92.91
2023-11-18T19:32:58.176Z,93.61
2023-11-18T19:35:30.808Z,93.37
2023-11-18T19:38:07.874Z,93.35
2023-11-18T19:40:38.578Z,93.38
2023-11-18T19:43:10.395Z,93.34
2023-11-18T19:45:40.180Z,93.34
2023-11-18T19:48:09.703Z,93.64
2023-11-18T19:50:40.621Z,93.38
2023-11-18T19:53:13.983Z,93.43
2023-11-18T19:55:45.539Z,93.50
2023-11-18T19:58:16.379Z,93.87
2023-11-18T20:00:46.273Z,93.70
2023-11-18T20:03:17.108Z,93.51
2023-11-18T20:05:46.545Z,93.42
2023-11-18T20:08:18.384Z,93.25
2023-11-18T20:10:48.581Z,93.36
2023-11-18T20:13:19.066Z,93.15
2023-11-18T20:15:48.938Z,93.29
2023-11-18T20:18:19.825Z,93.25
2023-11-18T20:20:55.127Z,92.86
2023-11-18T20:23:28.808Z,92.80
2023-11-18T20:25:58.523Z,92.79
2023-11-18T20:28:27.946Z,92.36
2023-11-18T20:30:57.063Z,92.29
2023-11-18T20:33:27.160Z,92.09
2023-11-18T20:35:56.318Z,92.29
2023-11-18T20:38:28.753Z,93.24
2023-11-18T20:40:59.316Z,93.75
2023-11-18T20:43:31.144Z,94.36
2023-11-18T20:46:00.357Z,94.51
2023-11-18T20:48:33.149Z,95.23
2023-11-18T20:51:06.328Z,95.50
2023-11-18T20:53:38.115Z,95.57
2023-11-18T20:56:10.840Z,95.31
2023-11-18T20:58:42.590Z,95.40
2023-11-18T21:01:13.928Z,95.29
2023-11-18T21:03:44.820Z,95.54
2023-11-18T21:06:21.318Z,95.46
2023-11-18T21:08:56.025Z,95.35
2023-11-18T21:11:27.260Z,95.55
2023-11-18T21:13:57.294Z,95.20
2023-11-18T21:16:28.985Z,94.95
2023-11-18T21:19:02.758Z,94.78
2023-11-18T21:21:32.101Z,94.95
2023-11-18T21:24:04.742Z,95.28
2023-11-18T21:26:33.960Z,95.31
2023-11-18T21:29:03.626Z,95.59
2023-11-18T21:31:34.561Z,95.41
2023-11-18T21:34:05.797Z,95.66
2023-11-18T21:36:38.930Z,95.21
2023-11-18T21:39:16.472Z,96.26
2023-11-18T21:41:46.381Z,96.08
2023-11-18T21:44:22.061Z,96.10
2023-11-18T21:46:52.091Z,96.26
2023-11-18T21:49:21.702Z,96.33
2023-11-18T21:51:51.436Z,96.22
2023-11-18T21:54:22.076Z,96.38
2023-11-18T21:56:51.312Z,96.58
2023-11-18T21:59:20.711Z,96.43
2023-11-18T22:01:50.440Z,96.43
2023-11-18T22:04:21.514Z,96.44
2023-11-18T22:06:53.550Z,96.18
2023-11-18T22:09:27.341Z,96.31
2023-11-18T22:11:57.259Z,95.90
2023-11-18T22:14:27.396Z,96.14
2023-11-18T22:16:59.107Z,96.11
2023-11-18T22:19:29.795Z,95.97
2023-11-18T22:21:58.962Z,95.93
2023-11-18T22:24:30.366Z,96.07
2023-11-18T22:26:59.555Z,95.98
2023-11-18T22:29:30.260Z,96.04
2023-11-18T22:31:59.615Z,96.18
2023-11-18T22:34:29.192Z,96.12
2023-11-18T22:36:58.485Z,95.95
2023-11-18T22:39:30.067Z,96.04
2023-11-18T22:41:59.282Z,96.03
2023-11-18T22:44:28.691Z,95.88
2023-11-18T22:46:59.170Z,95.81
2023-11-18T22:49:28.980Z,95.97
2023-11-18T22:51:58.450Z,95.93
2023-11-18T22:54:29.133Z,96.10
2023-11-18T22:56:58.442Z,96.00
2023-11-18T22:59:27.838Z,96.12
2023-11-18T23:01:57.730Z,95.73
2023-11-18T23:04:29.210Z,95.94
2023-11-18T23:06:58.779Z,95.41
2023-11-18T23:09:29.553Z,95.62
2023-11-18T23:11:58.666Z,95.54
2023-11-18T23:14:29.787Z,95.43
2023-11-18T23:17:08.212Z,95.43
2023-11-18T23:19:47.796Z,95.56
2023-11-18T23:22:20.583Z,95.65
2023-11-18T23:24:51.673Z,95.81
2023-11-18T23:27:20.961Z,95.80
2023-11-18T23:29:50.648Z,95.32
2023-11-18T23:32:20.701Z,95.27
2023-11-18T23:34:50.505Z,95.39
2023-11-18T23:37:20.373Z,95.58
2023-11-18T23:39:55.331Z,95.47
2023-11-18T23:42:24.729Z,95.92
2023-11-18T23:44:54.462Z,95.72
2023-11-18T23:47:23.765Z,95.79
2023-11-18T23:52:25.330Z,95.49
2023-11-18T23:54:56.298Z,95.76
2023-11-18T23:57:25.586Z,95.27
2023-11-18T23:59:56.865Z,95.42
